createdAt,value
2018-01-23T00:01:27.298Z,67.60
2018-01-23T00:03:55.376Z,67.60
2018-01-23T00:06:23.635Z,67.40
2018-01-23T00:08:52.505Z,67.20
2018-01-23T00:11:20.561Z,67.20
2018-01-23T00:13:48.667Z,67.00
2018-01-23T00:16:16.718Z,67.00
2018-01-23T00:18:44.785Z,66.80
2018-01-23T00:21:12.857Z,66.80
2018-01-23T00:23:40.926Z,67.00
2018-01-23T00:26:09.028Z,67.00
2018-01-23T00:28:37.095Z,66.90
2018-01-23T00:31:05.177Z,68.10
2018-01-23T00:33:34.010Z,67.20
2018-01-23T00:36:02.074Z,67.20
2018-01-23T00:38:30.138Z,68.90
2018-01-23T00:40:58.251Z,71.80
2018-01-23T00:43:26.308Z,72.70
2018-01-23T00:45:56.312Z,74.30
2018-01-23T00:48:24.380Z,73.10
2018-01-23T00:50:52.462Z,73.00
2018-01-23T00:53:20.526Z,73.00
2018-01-23T00:55:48.590Z,73.00
2018-01-23T00:58:16.661Z,76.10
2018-01-23T01:00:44.729Z,75.70
2018-01-23T01:03:12.801Z,74.70
2018-01-23T01:05:40.873Z,73.20
2018-01-23T01:08:08.946Z,73.30
2018-01-23T01:10:37.014Z,72.30
2018-01-23T01:13:05.097Z,70.80
2018-01-23T01:15:33.170Z,70.00
2018-01-23T01:18:01.240Z,70.00
2018-01-23T01:20:29.297Z,69.60
2018-01-23T01:22:57.369Z,69.40
2018-01-23T01:25:25.433Z,69.00
2018-01-23T01:27:53.500Z,69.00
2018-01-23T01:30:21.565Z,69.30
2018-01-23T01:32:49.642Z,69.20
2018-01-23T01:35:17.706Z,68.10
2018-01-23T01:37:45.756Z,70.00
2018-01-23T01:40:14.604Z,71.00
2018-01-23T01:42:42.658Z,71.00
2018-01-23T01:45:10.745Z,72.10
2018-01-23T01:47:38.821Z,71.40
2018-01-23T01:50:06.894Z,71.90
2018-01-23T01:52:34.962Z,71.30
2018-01-23T01:55:03.030Z,71.00
2018-01-23T01:57:31.103Z,70.80
2018-01-23T01:59:59.171Z,72.90
2018-01-23T02:02:27.242Z,73.10
2018-01-23T02:04:55.314Z,73.10
2018-01-23T02:07:23.380Z,73.20
2018-01-23T02:09:51.456Z,73.00
2018-01-23T02:12:19.524Z,76.30
2018-01-23T02:14:47.608Z,77.70
2018-01-23T02:17:15.662Z,78.10
2018-01-23T02:19:43.744Z,78.10
2018-01-23T02:22:11.802Z,79.20
2018-01-23T02:24:39.869Z,79.20
2018-01-23T02:27:07.941Z,78.30
2018-01-23T02:29:36.015Z,78.10
2018-01-23T02:32:04.089Z,77.30
2018-01-23T02:34:32.166Z,78.00
2018-01-23T02:37:00.229Z,78.20
2018-01-23T02:39:28.293Z,78.30
2018-01-23T02:41:56.388Z,77.60
2018-01-23T02:44:24.458Z,77.10
2018-01-23T02:46:52.529Z,76.60
2018-01-23T02:49:20.595Z,76.40
2018-01-23T02:51:48.666Z,76.00
2018-01-23T02:54:16.743Z,75.60
2018-01-23T02:56:44.813Z,77.10
2018-01-23T02:59:12.878Z,77.60
2018-01-23T03:01:40.958Z,77.50
2018-01-23T03:04:10.725Z,76.80
2018-01-23T03:06:38.793Z,76.70
2018-01-23T03:09:07.774Z,76.10
2018-01-23T03:11:35.848Z,75.70
2018-01-23T03:14:03.913Z,76.30
2018-01-23T03:16:31.983Z,75.90
2018-01-23T03:19:00.055Z,76.00
2018-01-23T03:21:28.164Z,76.10
2018-01-23T03:23:56.209Z,76.00
2018-01-23T03:26:24.274Z,75.80
2018-01-23T03:28:52.342Z,75.20
2018-01-23T03:31:20.418Z,74.60
2018-01-23T03:33:48.486Z,73.70
2018-01-23T03:36:16.558Z,76.10
2018-01-23T03:38:45.426Z,75.40
2018-01-23T03:41:13.503Z,74.70
2018-01-23T03:43:41.586Z,74.60
2018-01-23T03:46:09.658Z,75.10
2018-01-23T03:48:37.729Z,73.80
2018-01-23T03:51:05.800Z,73.60
2018-01-23T03:53:33.877Z,74.40
2018-01-23T03:56:01.949Z,75.80
2018-01-23T03:58:30.023Z,78.30
2018-01-23T04:00:58.093Z,77.40
2018-01-23T04:03:26.167Z,76.30
2018-01-23T04:05:54.246Z,75.30
2018-01-23T04:08:22.422Z,80.10
2018-01-23T04:10:50.494Z,81.70
2018-01-23T04:13:18.570Z,79.90
2018-01-23T04:15:46.642Z,79.00
2018-01-23T04:18:14.708Z,78.60
2018-01-23T04:20:42.790Z,79.50
2018-01-23T04:23:11.393Z,80.00
2018-01-23T04:25:40.230Z,79.10
2018-01-23T04:28:08.306Z,79.10
2018-01-23T04:30:36.376Z,82.00
2018-01-23T04:33:04.447Z,82.90
2018-01-23T04:35:32.522Z,81.10
2018-01-23T04:38:00.594Z,79.80
2018-01-23T04:40:28.663Z,78.30
2018-01-23T04:42:56.732Z,77.40
2018-01-23T04:45:24.804Z,76.90
2018-01-23T04:47:52.872Z,76.20
2018-01-23T04:50:20.977Z,75.90
2018-01-23T04:52:49.827Z,76.80
2018-01-23T04:55:17.885Z,75.80
2018-01-23T04:57:45.957Z,75.60
2018-01-23T05:00:14.061Z,75.80
2018-01-23T05:02:42.146Z,75.60
2018-01-23T05:05:10.982Z,75.20
2018-01-23T05:07:39.061Z,75.20
2018-01-23T05:10:08.042Z,74.90
2018-01-23T05:12:36.114Z,75.00
2018-01-23T05:15:04.181Z,74.40
2018-01-23T05:17:32.259Z,77.80
2018-01-23T05:20:00.334Z,78.60
2018-01-23T05:22:28.402Z,79.70
2018-01-23T05:24:56.470Z,80.10
2018-01-23T05:27:24.537Z,79.90
2018-01-23T05:29:52.670Z,80.60
2018-01-23T05:32:21.501Z,81.30
2018-01-23T05:34:49.577Z,81.30
2018-01-23T05:37:17.645Z,83.00
2018-01-23T05:39:45.717Z,82.60
2018-01-23T05:42:13.794Z,81.90
2018-01-23T05:44:41.858Z,81.60
2018-01-23T05:47:09.930Z,83.10
2018-01-23T05:49:38.008Z,83.00
2018-01-23T05:52:06.078Z,83.00
2018-01-23T05:54:34.160Z,83.10
2018-01-23T05:57:02.238Z,83.30
2018-01-23T05:59:30.319Z,81.80
2018-01-23T06:01:58.387Z,81.80
2018-01-23T06:04:26.462Z,81.20
2018-01-23T06:06:54.542Z,81.30
2018-01-23T06:09:23.377Z,83.10
2018-01-23T06:11:51.450Z,83.10
2018-01-23T06:14:19.514Z,83.10
2018-01-23T06:16:47.607Z,83.10
2018-01-23T06:19:15.683Z,83.10
2018-01-23T06:21:43.762Z,83.80
2018-01-23T06:24:11.853Z,84.50
2018-01-23T06:26:39.930Z,85.30
2018-01-23T06:29:08.765Z,83.20
2018-01-23T06:31:36.837Z,83.20
2018-01-23T06:34:04.910Z,83.20
2018-01-23T06:36:33.041Z,83.10
2018-01-23T06:39:01.072Z,83.20
2018-01-23T06:41:29.150Z,83.40
2018-01-23T06:43:57.218Z,82.10
2018-01-23T06:46:25.278Z,81.10
2018-01-23T06:48:53.351Z,80.30
2018-01-23T06:51:21.427Z,79.70
2018-01-23T06:53:49.493Z,78.80
2018-01-23T06:56:17.573Z,78.10
2018-01-23T06:58:45.695Z,76.60
2018-01-23T07:01:13.779Z,76.10
2018-01-23T07:03:41.858Z,75.50
2018-01-23T07:06:09.938Z,75.20
2018-01-23T07:08:38.005Z,75.10
2018-01-23T07:11:06.097Z,74.40
2018-01-23T07:13:34.153Z,74.30
2018-01-23T07:16:02.235Z,74.30
2018-01-23T07:18:30.307Z,74.40
2018-01-23T07:20:58.394Z,74.10
2018-01-23T07:23:27.250Z,75.50
2018-01-23T07:25:55.317Z,75.50
2018-01-23T07:28:23.414Z,75.40
2018-01-23T07:30:51.494Z,75.90
2018-01-23T07:33:20.350Z,79.30
2018-01-23T07:35:48.441Z,79.30
2018-01-23T07:38:16.514Z,80.40
2018-01-23T07:40:44.590Z,81.00
2018-01-23T07:43:12.666Z,83.30
2018-01-23T07:45:41.509Z,83.70
2018-01-23T07:48:09.593Z,83.70
2018-01-23T07:50:37.682Z,84.20
2018-01-23T07:53:05.755Z,84.30
2018-01-23T07:55:34.816Z,83.60
2018-01-23T07:58:04.834Z,83.60
2018-01-23T08:00:32.907Z,84.10
2018-01-23T08:03:00.978Z,85.80
2018-01-23T08:05:29.062Z,86.60
2018-01-23T08:07:57.130Z,88.30
2018-01-23T08:10:25.216Z,89.10
2018-01-23T08:12:53.295Z,88.30
2018-01-23T08:15:21.362Z,89.00
2018-01-23T08:17:49.434Z,89.00
2018-01-23T08:20:17.511Z,86.90
2018-01-23T08:22:45.579Z,87.60
2018-01-23T08:25:13.646Z,85.40
2018-01-23T08:27:41.723Z,84.80
2018-01-23T08:30:09.794Z,85.20
2018-01-23T08:32:38.625Z,85.20
2018-01-23T08:35:06.693Z,85.20
2018-01-23T08:37:34.774Z,85.50
2018-01-23T08:40:02.875Z,86.40
2018-01-23T08:42:31.053Z,86.00
2018-01-23T08:44:59.139Z,86.70
2018-01-23T08:47:27.977Z,85.70
2018-01-23T08:49:56.054Z,84.80
2018-01-23T08:52:24.139Z,83.80
2018-01-23T08:54:52.228Z,84.60
2018-01-23T08:57:20.305Z,84.70
2018-01-23T08:59:48.373Z,84.10
2018-01-23T09:02:16.445Z,83.40
2018-01-23T09:04:44.515Z,83.30
2018-01-23T09:07:13.354Z,82.60
2018-01-23T09:09:41.423Z,83.40
2018-01-23T09:12:09.502Z,82.10
2018-01-23T09:14:37.577Z,83.40
2018-01-23T09:17:05.645Z,81.50
2018-01-23T09:19:33.716Z,80.70
2018-01-23T09:22:01.799Z,79.90
2018-01-23T09:24:29.859Z,79.70
2018-01-23T09:26:57.948Z,80.10
2018-01-23T09:29:26.079Z,79.90
2018-01-23T09:31:54.142Z,79.80
2018-01-23T09:34:22.209Z,80.10
2018-01-23T09:36:50.285Z,78.60
2018-01-23T09:39:18.360Z,79.40
2018-01-23T09:41:46.414Z,78.70
2018-01-23T09:44:15.252Z,78.60
2018-01-23T09:46:43.323Z,78.60
2018-01-23T09:49:11.391Z,76.90
2018-01-23T09:51:39.462Z,77.30
2018-01-23T09:54:07.542Z,77.00
2018-01-23T09:56:35.614Z,77.20
2018-01-23T09:59:03.686Z,76.70
2018-01-23T10:01:31.759Z,76.30
2018-01-23T10:03:59.841Z,78.20
2018-01-23T10:06:27.910Z,76.20
2018-01-23T10:08:56.064Z,75.50
2018-01-23T10:11:24.135Z,74.40
2018-01-23T10:13:52.211Z,74.60
2018-01-23T10:16:20.279Z,72.70
2018-01-23T10:18:48.360Z,71.90
2018-01-23T10:21:16.430Z,74.40
2018-01-23T10:23:44.511Z,74.10
2018-01-23T10:26:12.586Z,73.80
2018-01-23T10:28:41.426Z,73.20
2018-01-23T10:31:09.491Z,73.30
2018-01-23T10:33:37.556Z,74.20
2018-01-23T10:36:05.630Z,74.50
2018-01-23T10:38:33.701Z,73.40
2018-01-23T10:41:01.775Z,74.60
2018-01-23T10:43:30.250Z,71.90
2018-01-23T10:45:58.317Z,72.40
2018-01-23T10:48:26.386Z,72.50
2018-01-23T10:50:54.461Z,71.50
2018-01-23T10:53:22.537Z,71.20
2018-01-23T10:55:50.606Z,71.40
2018-01-23T10:58:18.785Z,70.80
2018-01-23T11:00:52.476Z,72.00
2018-01-23T11:03:20.546Z,72.70
2018-01-23T11:05:48.614Z,72.30
2018-01-23T11:08:16.698Z,71.90
2018-01-23T11:10:44.783Z,71.80
2018-01-23T11:13:12.862Z,72.40
2018-01-23T11:15:40.933Z,73.40
2018-01-23T11:18:09.001Z,73.60
2018-01-23T11:20:37.895Z,74.70
2018-01-23T11:23:05.966Z,75.30
2018-01-23T11:25:34.034Z,75.90
2018-01-23T11:28:02.110Z,75.60
2018-01-23T11:30:30.173Z,74.20
2018-01-23T11:32:58.246Z,73.80
2018-01-23T11:35:26.314Z,74.80
2018-01-23T11:37:54.399Z,76.30
2018-01-23T11:40:22.457Z,75.40
2018-01-23T11:42:50.535Z,75.80
2018-01-23T11:45:18.634Z,76.00
2018-01-23T11:47:47.481Z,77.10
2018-01-23T11:50:15.551Z,77.10
2018-01-23T11:52:43.626Z,75.50
2018-01-23T11:55:11.715Z,74.50
2018-01-23T11:57:39.804Z,75.20
2018-01-23T12:00:08.641Z,74.30
2018-01-23T12:02:36.731Z,74.50
2018-01-23T12:05:04.811Z,73.50
2018-01-23T12:07:32.882Z,74.00
2018-01-23T12:10:00.998Z,71.90
2018-01-23T12:12:29.061Z,70.60
2018-01-23T12:14:57.202Z,70.60
2018-01-23T12:17:25.323Z,69.60
2018-01-23T12:19:53.410Z,68.90
2018-01-23T12:22:21.497Z,69.20
2018-01-23T12:24:49.576Z,69.50
2018-01-23T12:27:17.646Z,70.10
2018-01-23T12:29:45.730Z,72.50
2018-01-23T12:32:14.567Z,74.90
2018-01-23T12:34:42.655Z,74.90
2018-01-23T12:37:10.730Z,75.00
2018-01-23T12:39:38.877Z,75.00
2018-01-23T12:42:06.939Z,74.30
2018-01-23T12:44:35.022Z,75.00
2018-01-23T12:47:03.103Z,75.10
2018-01-23T12:49:31.184Z,75.00
2018-01-23T12:51:59.534Z,75.90
2018-01-23T12:54:27.610Z,77.70
2018-01-23T12:56:55.683Z,77.00
2018-01-23T12:59:23.752Z,77.20
2018-01-23T13:01:51.846Z,77.20
2018-01-23T13:04:19.943Z,78.20
2018-01-23T13:06:48.014Z,78.90
2018-01-23T13:09:16.092Z,79.00
2018-01-23T13:11:44.931Z,78.90
2018-01-23T13:14:13.000Z,78.90
2018-01-23T13:16:41.070Z,78.80
2018-01-23T13:19:09.141Z,79.80
2018-01-23T13:21:37.224Z,78.50
2018-01-23T13:24:05.290Z,79.30
2018-01-23T13:26:33.401Z,78.70
2018-01-23T13:29:02.241Z,79.50
2018-01-23T13:31:30.303Z,79.50
2018-01-23T13:33:58.374Z,79.10
2018-01-23T13:36:26.447Z,80.40
2018-01-23T13:38:54.530Z,81.60
2018-01-23T13:41:22.622Z,81.50
2018-01-23T13:43:50.701Z,82.10
2018-01-23T13:46:18.776Z,82.20
2018-01-23T13:48:46.853Z,80.90
2018-01-23T13:51:15.698Z,80.60
2018-01-23T13:53:43.776Z,80.60
2018-01-23T13:56:11.843Z,79.30
2018-01-23T13:58:39.920Z,79.70
2018-01-23T14:01:07.990Z,79.80
2018-01-23T14:03:36.122Z,79.50
2018-01-23T14:06:04.165Z,79.40
2018-01-23T14:08:33.005Z,80.20
2018-01-23T14:11:01.083Z,80.20
2018-01-23T14:13:29.158Z,80.60
2018-01-23T14:15:57.231Z,81.10
2018-01-23T14:18:25.297Z,81.40
2018-01-23T14:20:53.373Z,82.30
2018-01-23T14:23:21.445Z,82.40
2018-01-23T14:25:49.535Z,82.20
2018-01-23T14:28:17.615Z,82.00
2018-01-23T14:30:45.699Z,82.00
2018-01-23T14:33:14.562Z,82.80
2018-01-23T14:35:42.642Z,82.90
2018-01-23T14:38:10.711Z,82.70
2018-01-23T14:40:38.822Z,83.60
2018-01-23T14:43:06.894Z,84.60
2018-01-23T14:45:34.983Z,84.60
2018-01-23T14:48:03.059Z,84.60
2018-01-23T14:50:31.172Z,85.40
2018-01-23T14:52:59.252Z,85.90
2018-01-23T14:55:28.086Z,87.30
2018-01-23T14:57:56.170Z,87.30
2018-01-23T15:00:24.243Z,87.20
2018-01-23T15:02:52.314Z,86.30
2018-01-23T15:05:20.391Z,85.60
2018-01-23T15:07:48.461Z,85.50
2018-01-23T15:10:16.530Z,85.90
2018-01-23T15:12:44.600Z,85.40
2018-01-23T15:15:12.670Z,84.80
2018-01-23T15:17:40.756Z,85.20
2018-01-23T15:20:08.814Z,85.90
2018-01-23T15:22:36.910Z,87.30
2018-01-23T15:25:05.762Z,89.30
2018-01-23T15:27:33.845Z,88.70
2018-01-23T15:30:01.919Z,89.00
2018-01-23T15:32:29.993Z,88.90
2018-01-23T15:34:58.075Z,88.40
2018-01-23T15:37:26.154Z,88.50
2018-01-23T15:39:55.002Z,88.70
2018-01-23T15:42:23.103Z,88.60
2018-01-23T15:44:51.165Z,89.30
2018-01-23T15:47:20.177Z,89.60
2018-01-23T15:49:49.021Z,88.10
2018-01-23T15:52:17.100Z,88.10
2018-01-23T15:54:45.172Z,88.00
2018-01-23T15:57:13.252Z,87.50
2018-01-23T15:59:41.331Z,87.50
2018-01-23T16:02:09.398Z,86.70
2018-01-23T16:04:37.470Z,86.10
2018-01-23T16:07:05.539Z,85.70
2018-01-23T16:09:33.609Z,86.70
2018-01-23T16:12:01.691Z,87.20
2018-01-23T16:14:29.764Z,86.70
2018-01-23T16:16:57.850Z,87.70
2018-01-23T16:19:25.892Z,88.00
2018-01-23T16:21:53.958Z,88.50
2018-01-23T16:24:22.070Z,89.80
2018-01-23T16:26:50.137Z,90.00
2018-01-23T16:29:18.979Z,89.50
2018-01-23T16:31:47.059Z,89.60
2018-01-23T16:34:15.125Z,90.20
2018-01-23T16:36:43.207Z,90.70
2018-01-23T16:39:11.325Z,90.70
2018-01-23T16:41:39.345Z,90.50
2018-01-23T16:44:07.418Z,90.50
2018-01-23T16:46:35.494Z,90.50
2018-01-23T16:49:03.924Z,90.40
2018-01-23T16:51:31.998Z,90.30
2018-01-23T16:54:00.071Z,90.20
2018-01-23T16:56:28.152Z,90.20
2018-01-23T16:58:56.230Z,90.50
2018-01-23T17:01:24.309Z,90.00
2018-01-23T17:03:52.378Z,89.80
2018-01-23T17:06:20.459Z,90.40
2018-01-23T17:08:48.595Z,90.70
2018-01-23T17:11:16.662Z,90.60
2018-01-23T17:13:44.730Z,90.50
2018-01-23T17:16:12.814Z,91.00
2018-01-23T17:18:40.879Z,91.10
2018-01-23T17:21:08.954Z,91.30
2018-01-23T17:23:37.019Z,91.20
2018-01-23T17:26:05.100Z,91.10
2018-01-23T17:28:33.165Z,91.30
2018-01-23T17:31:01.232Z,91.30
2018-01-23T17:33:29.297Z,91.20
2018-01-23T17:35:57.364Z,91.00
2018-01-23T17:38:25.445Z,90.90
2018-01-23T17:40:53.501Z,91.10
2018-01-23T17:43:21.579Z,91.10
2018-01-23T17:45:49.667Z,91.30
2018-01-23T17:48:17.725Z,91.40
2018-01-23T17:50:45.790Z,91.60
2018-01-23T17:53:13.870Z,91.90
2018-01-23T17:55:41.950Z,91.90
2018-01-23T17:58:10.017Z,92.00
2018-01-23T18:00:38.115Z,92.00
2018-01-23T18:03:06.202Z,92.00
2018-01-23T18:05:34.270Z,92.50
2018-01-23T18:08:02.340Z,92.40
2018-01-23T18:10:30.418Z,92.40
2018-01-23T18:13:07.270Z,92.30
2018-01-23T18:15:35.335Z,92.50
2018-01-23T18:18:03.401Z,92.80
2018-01-23T18:20:31.476Z,93.00
2018-01-23T18:22:59.551Z,93.00
2018-01-23T18:25:27.626Z,93.20
2018-01-23T18:27:55.689Z,93.10
2018-01-23T18:30:23.771Z,93.10
2018-01-23T18:32:51.840Z,93.00
2018-01-23T18:35:19.939Z,92.60
2018-01-23T18:37:48.026Z,92.70
2018-01-23T18:40:16.101Z,92.80
2018-01-23T18:42:44.165Z,92.50
2018-01-23T18:45:12.229Z,92.60
2018-01-23T18:47:40.311Z,92.90
2018-01-23T18:50:08.785Z,93.00
2018-01-23T18:52:36.847Z,93.20
2018-01-23T18:55:04.933Z,93.30
2018-01-23T18:57:33.000Z,93.60
2018-01-23T19:00:01.094Z,94.10
2018-01-23T19:02:29.160Z,94.00
2018-01-23T19:04:57.234Z,94.00
2018-01-23T19:07:25.311Z,93.80
2018-01-23T19:09:53.390Z,93.60
2018-01-23T19:12:21.517Z,93.50
2018-01-23T19:14:49.555Z,93.50
2018-01-23T19:17:17.639Z,93.50
2018-01-23T19:19:46.487Z,93.30
2018-01-23T19:22:14.568Z,93.30
2018-01-23T19:24:42.639Z,93.60
2018-01-23T19:27:10.730Z,93.60
2018-01-23T19:29:38.797Z,93.60
2018-01-23T19:32:06.879Z,93.40
2018-01-23T19:34:35.725Z,92.90
2018-01-23T19:37:03.823Z,93.20
2018-01-23T19:39:31.928Z,93.00
2018-01-23T19:42:00.770Z,92.70
2018-01-23T19:44:28.843Z,92.60
2018-01-23T19:46:56.926Z,92.40
2018-01-23T19:49:25.015Z,92.60
2018-01-23T19:51:53.854Z,92.40
2018-01-23T19:54:21.930Z,92.40
2018-01-23T19:56:50.005Z,92.60
2018-01-23T19:59:18.079Z,92.30
2018-01-23T20:01:46.151Z,92.30
2018-01-23T20:04:14.235Z,92.10
2018-01-23T20:06:42.315Z,92.30
2018-01-23T20:09:11.172Z,92.50
2018-01-23T20:11:39.254Z,92.30
2018-01-23T20:14:07.334Z,92.10
2018-01-23T20:16:35.403Z,92.10
2018-01-23T20:19:03.482Z,92.20
2018-01-23T20:21:31.563Z,92.10
2018-01-23T20:24:00.401Z,92.00
2018-01-23T20:26:28.465Z,92.00
2018-01-23T20:28:56.541Z,91.90
2018-01-23T20:31:24.615Z,91.50
2018-01-23T20:33:52.689Z,91.50
2018-01-23T20:36:20.767Z,91.80
2018-01-23T20:38:48.860Z,91.70
2018-01-23T20:41:16.934Z,91.40
2018-01-23T20:43:45.015Z,91.50
2018-01-23T20:46:13.850Z,91.50
2018-01-23T20:48:41.917Z,91.50
2018-01-23T20:51:09.986Z,91.50
2018-01-23T20:53:38.057Z,90.90
2018-01-23T20:56:06.139Z,90.80
2018-01-23T20:58:34.238Z,90.60
2018-01-23T21:01:02.319Z,90.50
2018-01-23T21:03:30.397Z,90.30
2018-01-23T21:05:59.247Z,90.30
2018-01-23T21:08:27.326Z,90.30
2018-01-23T21:10:55.399Z,90.40
2018-01-23T21:13:23.483Z,90.40
2018-01-23T21:15:51.582Z,90.40
2018-01-23T21:18:20.414Z,90.00
2018-01-23T21:20:48.525Z,90.00
2018-01-23T21:23:16.607Z,90.00
2018-01-23T21:25:45.459Z,89.70
2018-01-23T21:28:13.525Z,89.60
2018-01-23T21:30:41.610Z,89.20
2018-01-23T21:33:09.685Z,89.00
2018-01-23T21:35:37.749Z,88.50
2018-01-23T21:38:05.840Z,88.50
2018-01-23T21:40:33.914Z,88.10
2018-01-23T21:43:02.751Z,88.10
2018-01-23T21:45:30.821Z,88.20
2018-01-23T21:47:58.913Z,87.80
2018-01-23T21:50:26.989Z,87.90
2018-01-23T21:52:55.062Z,87.70
2018-01-23T21:55:23.129Z,88.20
2018-01-23T21:57:51.214Z,88.80
2018-01-23T22:00:19.283Z,89.90
2018-01-23T22:02:47.374Z,90.40
2018-01-23T22:05:16.217Z,91.00
2018-01-23T22:07:44.292Z,90.90
2018-01-23T22:10:12.372Z,90.80
2018-01-23T22:12:40.434Z,91.00
2018-01-23T22:15:08.515Z,91.70
2018-01-23T22:17:36.585Z,91.70
2018-01-23T22:20:04.664Z,93.00
2018-01-23T22:22:32.751Z,92.60
2018-01-23T22:25:01.599Z,92.60
2018-01-23T22:27:29.696Z,92.60
2018-01-23T22:29:57.762Z,91.70
2018-01-23T22:32:25.847Z,92.40
2018-01-23T22:34:53.919Z,92.70
2018-01-23T22:37:22.763Z,92.80
2018-01-23T22:39:50.859Z,92.80
2018-01-23T22:42:18.936Z,92.50
2018-01-23T22:44:47.030Z,92.80
2018-01-23T22:47:15.872Z,92.60
2018-01-23T22:49:43.958Z,92.50
2018-01-23T22:52:12.042Z,92.50
2018-01-23T22:54:40.124Z,92.50
2018-01-23T22:57:08.959Z,92.20
2018-01-23T22:59:37.055Z,92.20
2018-01-23T23:02:05.130Z,91.70
2018-01-23T23:04:33.208Z,91.80
2018-01-23T23:07:01.278Z,91.40
2018-01-23T23:09:29.352Z,91.30
2018-01-23T23:11:57.427Z,90.80
2018-01-23T23:14:25.525Z,91.20
2018-01-23T23:16:54.362Z,90.50
2018-01-23T23:19:22.453Z,90.50
2018-01-23T23:21:50.538Z,90.10
2018-01-23T23:24:19.380Z,90.00
2018-01-23T23:26:47.448Z,90.00
2018-01-23T23:29:15.532Z,89.10
2018-01-23T23:31:43.627Z,88.10
2018-01-23T23:34:11.707Z,88.10
2018-01-23T23:36:40.551Z,87.00
2018-01-23T23:39:08.632Z,87.10
2018-01-23T23:41:36.701Z,87.50
2018-01-23T23:44:04.772Z,86.90
2018-01-23T23:46:32.949Z,87.00
2018-01-23T23:49:01.027Z,87.10
2018-01-23T23:51:29.099Z,87.30
2018-01-23T23:53:57.166Z,86.50
2018-01-23T23:56:25.245Z,85.60
2018-01-23T23:58:53.315Z,85.60
